sensor_id;sensor_type;location;lat;lon;timestamp;temperature;humidity
51733;DHT22;39139;53.144;6.244;2023-04-28T00:01:39;6.50;99.90
51733;DHT22;39139;53.144;6.244;2023-04-28T00:04:05;6.70;99.90
51733;DHT22;39139;53.144;6.244;2023-04-28T00:06:31;6.50;99.90
51733;DHT22;39139;53.144;6.244;2023-04-28T00:08:56;6.50;99.90
51733;DHT22;39139;53.144;6.244;2023-04-28T00:11:22;6.40;99.90
51733;DHT22;39139;53.144;6.244;2023-04-28T00:13:47;6.40;99.90
51733;DHT22;39139;53.144;6.244;2023-04-28T00:16:13;6.40;99.90
51733;DHT22;39139;53.144;6.244;2023-04-28T00:18:38;6.40;99.90
51733;DHT22;39139;53.144;6.244;2023-04-28T00:21:04;6.40;99.90
51733;DHT22;39139;53.144;6.244;2023-04-28T00:23:30;5.90;99.90
51733;DHT22;39139;53.144;6.244;2023-04-28T00:25:56;6.70;99.90
51733;DHT22;39139;53.144;6.244;2023-04-28T00:28:22;6.40;99.90
51733;DHT22;39139;53.144;6.244;2023-04-28T00:30:47;6.40;99.90
51733;DHT22;39139;53.144;6.244;2023-04-28T00:33:13;6.40;99.90
51733;DHT22;39139;53.144;6.244;2023-04-28T00:35:39;6.40;99.90
51733;DHT22;39139;53.144;6.244;2023-04-28T00:38:06;6.40;99.90
51733;DHT22;39139;53.144;6.244;2023-04-28T00:40:33;6.30;99.90
51733;DHT22;39139;53.144;6.244;2023-04-28T00:42:58;6.40;99.90
51733;DHT22;39139;53.144;6.244;2023-04-28T00:45:24;6.30;99.90
51733;DHT22;39139;53.144;6.244;2023-04-28T00:47:50;6.40;99.90
51733;DHT22;39139;53.144;6.244;2023-04-28T00:50:16;6.30;99.90
51733;DHT22;39139;53.144;6.244;2023-04-28T00:52:42;6.50;99.90
51733;DHT22;39139;53.144;6.244;2023-04-28T00:55:08;6.60;99.90
51733;DHT22;39139;53.144;6.244;2023-04-28T00:57:35;6.30;99.90
51733;DHT22;39139;53.144;6.244;2023-04-28T01:00:01;6.30;99.90
51733;DHT22;39139;53.144;6.244;2023-04-28T01:02:27;6.30;99.90
51733;DHT22;39139;53.144;6.244;2023-04-28T01:04:55;6.30;99.90
51733;DHT22;39139;53.144;6.244;2023-04-28T01:07:21;6.30;99.90
51733;DHT22;39139;53.144;6.244;2023-04-28T01:09:47;6.30;99.90
51733;DHT22;39139;53.144;6.244;2023-04-28T01:12:13;6.30;99.90
51733;DHT22;39139;53.144;6.244;2023-04-28T01:14:38;6.30;99.90
51733;DHT22;39139;53.144;6.244;2023-04-28T01:17:04;6.30;99.90
51733;DHT22;39139;53.144;6.244;2023-04-28T01:19:30;6.30;99.90
51733;DHT22;39139;53.144;6.244;2023-04-28T01:21:56;6.20;99.90
51733;DHT22;39139;53.144;6.244;2023-04-28T01:24:22;6.30;99.90
51733;DHT22;39139;53.144;6.244;2023-04-28T01:26:47;6.20;99.90
51733;DHT22;39139;53.144;6.244;2023-04-28T01:29:13;6.20;99.90
51733;DHT22;39139;53.144;6.244;2023-04-28T01:31:39;6.20;99.90
51733;DHT22;39139;53.144;6.244;2023-04-28T01:34:05;6.20;99.90
51733;DHT22;39139;53.144;6.244;2023-04-28T01:36:31;6.10;99.90
51733;DHT22;39139;53.144;6.244;2023-04-28T01:38:57;6.40;99.90
51733;DHT22;39139;53.144;6.244;2023-04-28T01:41:23;6.20;99.90
51733;DHT22;39139;53.144;6.244;2023-04-28T01:43:49;6.10;99.90
51733;DHT22;39139;53.144;6.244;2023-04-28T01:46:15;6.10;99.90
51733;DHT22;39139;53.144;6.244;2023-04-28T01:48:40;6.10;99.90
51733;DHT22;39139;53.144;6.244;2023-04-28T01:51:06;6.10;99.90
51733;DHT22;39139;53.144;6.244;2023-04-28T01:53:31;6.10;99.90
51733;DHT22;39139;53.144;6.244;2023-04-28T01:55:57;6.30;99.90
51733;DHT22;39139;53.144;6.244;2023-04-28T01:58:23;6.30;99.90
51733;DHT22;39139;53.144;6.244;2023-04-28T02:00:49;6.10;99.90
51733;DHT22;39139;53.144;6.244;2023-04-28T02:03:15;6.10;99.90
51733;DHT22;39139;53.144;6.244;2023-04-28T02:05:40;6.10;99.90
51733;DHT22;39139;53.144;6.244;2023-04-28T02:08:06;6.00;99.90
51733;DHT22;39139;53.144;6.244;2023-04-28T02:10:32;6.00;99.90
51733;DHT22;39139;53.144;6.244;2023-04-28T02:12:57;6.10;99.90
51733;DHT22;39139;53.144;6.244;2023-04-28T02:15:23;6.00;99.90
51733;DHT22;39139;53.144;6.244;2023-04-28T02:17:49;6.00;99.90
51733;DHT22;39139;53.144;6.244;2023-04-28T02:20:14;6.00;99.90
51733;DHT22;39139;53.144;6.244;2023-04-28T02:22:40;6.00;99.90
51733;DHT22;39139;53.144;6.244;2023-04-28T02:25:07;6.00;99.90
51733;DHT22;39139;53.144;6.244;2023-04-28T02:27:34;6.00;99.90
51733;DHT22;39139;53.144;6.244;2023-04-28T02:30:02;6.00;99.90
51733;DHT22;39139;53.144;6.244;2023-04-28T02:32:28;5.90;99.90
51733;DHT22;39139;53.144;6.244;2023-04-28T02:34:54;6.20;99.90
51733;DHT22;39139;53.144;6.244;2023-04-28T02:37:20;5.90;99.90
51733;DHT22;39139;53.144;6.244;2023-04-28T02:39:46;5.90;99.90
51733;DHT22;39139;53.144;6.244;2023-04-28T02:42:11;5.90;99.90
51733;DHT22;39139;53.144;6.244;2023-04-28T02:44:37;5.90;99.90
51733;DHT22;39139;53.144;6.244;2023-04-28T02:47:03;6.00;99.90
51733;DHT22;39139;53.144;6.244;2023-04-28T02:49:28;5.90;99.90
51733;DHT22;39139;53.144;6.244;2023-04-28T02:51:54;5.90;99.90
51733;DHT22;39139;53.144;6.244;2023-04-28T02:54:19;5.90;99.90
51733;DHT22;39139;53.144;6.244;2023-04-28T02:56:52;5.90;99.90
51733;DHT22;39139;53.144;6.244;2023-04-28T02:59:19;5.90;99.90
51733;DHT22;39139;53.144;6.244;2023-04-28T03:01:45;5.90;99.90
51733;DHT22;39139;53.144;6.244;2023-04-28T03:04:10;5.90;99.90
51733;DHT22;39139;53.144;6.244;2023-04-28T03:06:36;5.90;99.90
51733;DHT22;39139;53.144;6.244;2023-04-28T03:09:01;5.90;99.90
51733;DHT22;39139;53.144;6.244;2023-04-28T03:11:28;5.90;99.90
51733;DHT22;39139;53.144;6.244;2023-04-28T03:13:54;5.90;99.90
51733;DHT22;39139;53.144;6.244;2023-04-28T03:16:19;5.90;99.90
51733;DHT22;39139;53.144;6.244;2023-04-28T03:18:45;5.90;99.90
51733;DHT22;39139;53.144;6.244;2023-04-28T03:21:11;5.90;99.90
51733;DHT22;39139;53.144;6.244;2023-04-28T03:23:36;5.90;99.90
51733;DHT22;39139;53.144;6.244;2023-04-28T03:26:02;5.90;99.90
51733;DHT22;39139;53.144;6.244;2023-04-28T03:28:27;5.90;99.90
51733;DHT22;39139;53.144;6.244;2023-04-28T03:30:53;5.90;99.90
51733;DHT22;39139;53.144;6.244;2023-04-28T03:33:19;5.90;99.90
51733;DHT22;39139;53.144;6.244;2023-04-28T03:35:44;5.90;99.90
51733;DHT22;39139;53.144;6.244;2023-04-28T03:38:10;5.90;99.90
51733;DHT22;39139;53.144;6.244;2023-04-28T03:40:36;5.90;99.90
51733;DHT22;39139;53.144;6.244;2023-04-28T03:43:02;5.90;99.90
51733;DHT22;39139;53.144;6.244;2023-04-28T03:45:28;5.90;99.90
51733;DHT22;39139;53.144;6.244;2023-04-28T03:47:53;5.90;99.90
51733;DHT22;39139;53.144;6.244;2023-04-28T03:50:19;5.90;99.90
51733;DHT22;39139;53.144;6.244;2023-04-28T03:52:45;5.90;99.90
51733;DHT22;39139;53.144;6.244;2023-04-28T03:55:10;5.90;99.90
51733;DHT22;39139;53.144;6.244;2023-04-28T03:57:36;5.90;99.90
51733;DHT22;39139;53.144;6.244;2023-04-28T04:00:02;6.20;99.90
51733;DHT22;39139;53.144;6.244;2023-04-28T04:02:28;5.90;99.90
51733;DHT22;39139;53.144;6.244;2023-04-28T04:04:53;5.90;99.90
51733;DHT22;39139;53.144;6.244;2023-04-28T04:07:21;5.90;99.90
51733;DHT22;39139;53.144;6.244;2023-04-28T04:09:46;5.50;99.90
51733;DHT22;39139;53.144;6.244;2023-04-28T04:12:12;6.20;99.90
51733;DHT22;39139;53.144;6.244;2023-04-28T04:14:38;5.90;99.90
51733;DHT22;39139;53.144;6.244;2023-04-28T04:17:03;5.90;99.90
51733;DHT22;39139;53.144;6.244;2023-04-28T04:19:29;6.10;99.90
51733;DHT22;39139;53.144;6.244;2023-04-28T04:21:55;6.00;99.90
51733;DHT22;39139;53.144;6.244;2023-04-28T04:24:21;6.00;99.90
51733;DHT22;39139;53.144;6.244;2023-04-28T04:26:46;6.00;99.90
51733;DHT22;39139;53.144;6.244;2023-04-28T04:29:12;6.00;99.90
51733;DHT22;39139;53.144;6.244;2023-04-28T04:31:37;6.00;99.90
51733;DHT22;39139;53.144;6.244;2023-04-28T04:34:03;6.00;99.90
51733;DHT22;39139;53.144;6.244;2023-04-28T04:36:29;6.00;99.90
51733;DHT22;39139;53.144;6.244;2023-04-28T04:38:55;6.00;99.90
51733;DHT22;39139;53.144;6.244;2023-04-28T04:41:20;6.00;99.90
51733;DHT22;39139;53.144;6.244;2023-04-28T04:43:47;6.00;99.90
51733;DHT22;39139;53.144;6.244;2023-04-28T04:46:13;6.00;99.90
51733;DHT22;39139;53.144;6.244;2023-04-28T04:48:39;6.10;99.90
51733;DHT22;39139;53.144;6.244;2023-04-28T04:51:04;6.10;99.90
51733;DHT22;39139;53.144;6.244;2023-04-28T04:53:30;6.10;99.90
51733;DHT22;39139;53.144;6.244;2023-04-28T04:55:56;6.10;99.90
51733;DHT22;39139;53.144;6.244;2023-04-28T04:58:21;6.10;99.90
51733;DHT22;39139;53.144;6.244;2023-04-28T05:00:47;6.00;99.90
51733;DHT22;39139;53.144;6.244;2023-04-28T05:03:13;6.10;99.90
51733;DHT22;39139;53.144;6.244;2023-04-28T05:05:39;6.10;99.90
51733;DHT22;39139;53.144;6.244;2023-04-28T05:08:04;6.00;99.90
51733;DHT22;39139;53.144;6.244;2023-04-28T05:10:30;6.10;99.90
51733;DHT22;39139;53.144;6.244;2023-04-28T05:12:56;6.10;99.90
51733;DHT22;39139;53.144;6.244;2023-04-28T05:15:21;6.10;99.90
51733;DHT22;39139;53.144;6.244;2023-04-28T05:17:47;6.10;99.90
51733;DHT22;39139;53.144;6.244;2023-04-28T05:20:13;6.10;99.90
51733;DHT22;39139;53.144;6.244;2023-04-28T05:22:39;6.20;99.90
51733;DHT22;39139;53.144;6.244;2023-04-28T05:25:05;6.20;99.90
51733;DHT22;39139;53.144;6.244;2023-04-28T05:27:31;6.20;99.90
51733;DHT22;39139;53.144;6.244;2023-04-28T05:29:57;6.20;99.90
51733;DHT22;39139;53.144;6.244;2023-04-28T05:32:24;6.30;99.90
51733;DHT22;39139;53.144;6.244;2023-04-28T05:34:49;6.30;99.90
51733;DHT22;39139;53.144;6.244;2023-04-28T05:37:15;6.30;99.90
51733;DHT22;39139;53.144;6.244;2023-04-28T05:39:41;6.30;99.90
51733;DHT22;39139;53.144;6.244;2023-04-28T05:42:07;6.30;99.90
51733;DHT22;39139;53.144;6.244;2023-04-28T05:44:32;6.40;99.90
51733;DHT22;39139;53.144;6.244;2023-04-28T05:46:58;6.40;99.90
51733;DHT22;39139;53.144;6.244;2023-04-28T05:49:23;6.40;99.90
51733;DHT22;39139;53.144;6.244;2023-04-28T05:51:49;6.50;99.90
51733;DHT22;39139;53.144;6.244;2023-04-28T05:54:15;6.70;99.90
51733;DHT22;39139;53.144;6.244;2023-04-28T05:56:40;6.30;99.90
51733;DHT22;39139;53.144;6.244;2023-04-28T05:59:06;6.50;99.90
51733;DHT22;39139;53.144;6.244;2023-04-28T06:01:32;6.50;99.90
51733;DHT22;39139;53.144;6.244;2023-04-28T06:03:58;6.50;99.90
51733;DHT22;39139;53.144;6.244;2023-04-28T06:06:25;6.50;99.90
51733;DHT22;39139;53.144;6.244;2023-04-28T06:08:52;6.50;99.90
51733;DHT22;39139;53.144;6.244;2023-04-28T06:11:17;6.50;99.90
51733;DHT22;39139;53.144;6.244;2023-04-28T06:13:47;6.50;99.90
51733;DHT22;39139;53.144;6.244;2023-04-28T06:16:14;6.60;99.90
51733;DHT22;39139;53.144;6.244;2023-04-28T06:18:41;6.60;99.90
51733;DHT22;39139;53.144;6.244;2023-04-28T06:21:07;6.70;99.90
51733;DHT22;39139;53.144;6.244;2023-04-28T06:23:32;6.70;99.90
51733;DHT22;39139;53.144;6.244;2023-04-28T06:25:59;6.70;99.90
51733;DHT22;39139;53.144;6.244;2023-04-28T06:28:25;6.80;99.90
51733;DHT22;39139;53.144;6.244;2023-04-28T06:30:51;6.80;99.90
51733;DHT22;39139;53.144;6.244;2023-04-28T06:33:16;6.80;99.90
51733;DHT22;39139;53.144;6.244;2023-04-28T06:35:42;6.80;99.90
51733;DHT22;39139;53.144;6.244;2023-04-28T06:38:08;6.80;99.90
51733;DHT22;39139;53.144;6.244;2023-04-28T06:40:33;6.90;99.90
51733;DHT22;39139;53.144;6.244;2023-04-28T06:42:59;6.90;99.90
51733;DHT22;39139;53.144;6.244;2023-04-28T06:45:25;7.10;99.90
51733;DHT22;39139;53.144;6.244;2023-04-28T06:47:50;7.10;99.90
51733;DHT22;39139;53.144;6.244;2023-04-28T06:50:20;7.10;99.90
51733;DHT22;39139;53.144;6.244;2023-04-28T06:52:45;7.10;99.90
51733;DHT22;39139;53.144;6.244;2023-04-28T06:55:14;7.10;99.90
51733;DHT22;39139;53.144;6.244;2023-04-28T06:57:41;7.20;99.90
51733;DHT22;39139;53.144;6.244;2023-04-28T07:00:08;7.20;99.90
51733;DHT22;39139;53.144;6.244;2023-04-28T07:02:34;7.30;99.90
51733;DHT22;39139;53.144;6.244;2023-04-28T07:05:01;7.30;99.90
51733;DHT22;39139;53.144;6.244;2023-04-28T07:07:28;7.50;99.90
51733;DHT22;39139;53.144;6.244;2023-04-28T07:09:53;7.30;99.90
51733;DHT22;39139;53.144;6.244;2023-04-28T07:12:20;7.60;99.90
51733;DHT22;39139;53.144;6.244;2023-04-28T07:14:46;7.30;99.90
51733;DHT22;39139;53.144;6.244;2023-04-28T07:17:12;7.30;99.90
51733;DHT22;39139;53.144;6.244;2023-04-28T07:19:37;7.40;99.90
51733;DHT22;39139;53.144;6.244;2023-04-28T07:22:03;7.30;99.90
51733;DHT22;39139;53.144;6.244;2023-04-28T07:24:29;7.30;99.90
51733;DHT22;39139;53.144;6.244;2023-04-28T07:26:55;7.40;99.90
51733;DHT22;39139;53.144;6.244;2023-04-28T07:29:22;7.40;99.90
51733;DHT22;39139;53.144;6.244;2023-04-28T07:31:47;7.30;99.90
51733;DHT22;39139;53.144;6.244;2023-04-28T07:34:13;7.60;99.90
51733;DHT22;39139;53.144;6.244;2023-04-28T07:36:39;7.70;99.90
51733;DHT22;39139;53.144;6.244;2023-04-28T07:39:05;7.90;99.90
51733;DHT22;39139;53.144;6.244;2023-04-28T07:41:38;8.00;99.90
51733;DHT22;39139;53.144;6.244;2023-04-28T07:44:05;8.10;99.90
51733;DHT22;39139;53.144;6.244;2023-04-28T07:46:31;8.10;99.90
51733;DHT22;39139;53.144;6.244;2023-04-28T07:48:57;8.10;99.90
51733;DHT22;39139;53.144;6.244;2023-04-28T07:51:23;8.10;99.90
51733;DHT22;39139;53.144;6.244;2023-04-28T07:53:49;8.10;99.90
51733;DHT22;39139;53.144;6.244;2023-04-28T07:56:14;8.10;99.90
51733;DHT22;39139;53.144;6.244;2023-04-28T07:58:40;8.30;99.90
51733;DHT22;39139;53.144;6.244;2023-04-28T08:01:06;8.10;99.90
51733;DHT22;39139;53.144;6.244;2023-04-28T08:03:31;8.10;99.90
51733;DHT22;39139;53.144;6.244;2023-04-28T08:05:57;8.10;99.90
51733;DHT22;39139;53.144;6.244;2023-04-28T08:08:23;8.10;99.90
51733;DHT22;39139;53.144;6.244;2023-04-28T08:10:48;8.20;99.90
51733;DHT22;39139;53.144;6.244;2023-04-28T08:13:15;8.10;99.90
51733;DHT22;39139;53.144;6.244;2023-04-28T08:15:41;8.10;99.90
51733;DHT22;39139;53.144;6.244;2023-04-28T08:18:07;8.20;99.90
51733;DHT22;39139;53.144;6.244;2023-04-28T08:20:33;8.20;99.90
51733;DHT22;39139;53.144;6.244;2023-04-28T08:22:58;8.20;99.90
51733;DHT22;39139;53.144;6.244;2023-04-28T08:25:24;8.20;99.90
51733;DHT22;39139;53.144;6.244;2023-04-28T08:27:50;8.20;99.90
51733;DHT22;39139;53.144;6.244;2023-04-28T08:30:16;8.10;99.90
51733;DHT22;39139;53.144;6.244;2023-04-28T08:32:41;8.10;99.90
51733;DHT22;39139;53.144;6.244;2023-04-28T08:35:08;8.40;99.90
51733;DHT22;39139;53.144;6.244;2023-04-28T08:37:33;8.20;99.90
51733;DHT22;39139;53.144;6.244;2023-04-28T08:40:00;8.20;99.90
51733;DHT22;39139;53.144;6.244;2023-04-28T08:42:36;8.30;99.90
51733;DHT22;39139;53.144;6.244;2023-04-28T08:45:03;8.50;99.90
51733;DHT22;39139;53.144;6.244;2023-04-28T08:47:36;8.80;99.90
51733;DHT22;39139;53.144;6.244;2023-04-28T08:50:07;9.00;99.90
51733;DHT22;39139;53.144;6.244;2023-04-28T08:52:33;9.30;99.90
51733;DHT22;39139;53.144;6.244;2023-04-28T08:55:01;9.40;99.90
51733;DHT22;39139;53.144;6.244;2023-04-28T08:57:34;9.60;99.90
51733;DHT22;39139;53.144;6.244;2023-04-28T09:00:02;9.70;99.90
51733;DHT22;39139;53.144;6.244;2023-04-28T09:02:28;9.70;99.90
51733;DHT22;39139;53.144;6.244;2023-04-28T09:04:53;9.60;99.90
51733;DHT22;39139;53.144;6.244;2023-04-28T09:07:19;9.60;99.90
51733;DHT22;39139;53.144;6.244;2023-04-28T09:09:44;9.60;99.90
51733;DHT22;39139;53.144;6.244;2023-04-28T09:12:10;9.50;99.90
51733;DHT22;39139;53.144;6.244;2023-04-28T09:14:37;9.60;99.90
51733;DHT22;39139;53.144;6.244;2023-04-28T09:17:12;9.50;99.90
51733;DHT22;39139;53.144;6.244;2023-04-28T09:19:38;9.50;99.90
51733;DHT22;39139;53.144;6.244;2023-04-28T09:22:07;9.50;99.90
51733;DHT22;39139;53.144;6.244;2023-04-28T09:24:40;9.60;99.90
51733;DHT22;39139;53.144;6.244;2023-04-28T09:27:08;9.70;99.90
51733;DHT22;39139;53.144;6.244;2023-04-28T09:29:37;9.90;99.90
51733;DHT22;39139;53.144;6.244;2023-04-28T09:32:13;10.00;99.90
51733;DHT22;39139;53.144;6.244;2023-04-28T09:34:45;10.30;99.90
51733;DHT22;39139;53.144;6.244;2023-04-28T09:37:20;10.60;99.90
51733;DHT22;39139;53.144;6.244;2023-04-28T09:39:47;10.70;99.90
51733;DHT22;39139;53.144;6.244;2023-04-28T09:45:06;11.00;99.90
51733;DHT22;39139;53.144;6.244;2023-04-28T09:47:34;11.20;99.90
51733;DHT22;39139;53.144;6.244;2023-04-28T09:50:03;11.30;99.90
51733;DHT22;39139;53.144;6.244;2023-04-28T09:52:32;11.10;99.90
51733;DHT22;39139;53.144;6.244;2023-04-28T09:55:01;11.00;99.90
51733;DHT22;39139;53.144;6.244;2023-04-28T09:57:30;11.00;99.90
51733;DHT22;39139;53.144;6.244;2023-04-28T09:59:59;10.90;99.90
51733;DHT22;39139;53.144;6.244;2023-04-28T10:02:25;10.90;99.90
51733;DHT22;39139;53.144;6.244;2023-04-28T10:04:51;10.80;99.90
51733;DHT22;39139;53.144;6.244;2023-04-28T10:07:19;10.90;99.90
51733;DHT22;39139;53.144;6.244;2023-04-28T10:09:46;10.80;99.90
51733;DHT22;39139;53.144;6.244;2023-04-28T10:12:13;11.00;99.90
51733;DHT22;39139;53.144;6.244;2023-04-28T10:14:40;11.10;99.90
51733;DHT22;39139;53.144;6.244;2023-04-28T10:17:07;11.20;99.90
51733;DHT22;39139;53.144;6.244;2023-04-28T10:19:36;11.30;99.90
51733;DHT22;39139;53.144;6.244;2023-04-28T10:25:06;11.40;99.90
51733;DHT22;39139;53.144;6.244;2023-04-28T10:27:33;11.40;99.90
51733;DHT22;39139;53.144;6.244;2023-04-28T10:30:09;11.40;99.90
51733;DHT22;39139;53.144;6.244;2023-04-28T10:32:36;11.50;99.90
51733;DHT22;39139;53.144;6.244;2023-04-28T10:40:37;11.60;99.90
51733;DHT22;39139;53.144;6.244;2023-04-28T10:43:04;11.60;99.90
51733;DHT22;39139;53.144;6.244;2023-04-28T10:48:23;11.60;99.90
51733;DHT22;39139;53.144;6.244;2023-04-28T10:56:15;11.60;99.90
51733;DHT22;39139;53.144;6.244;2023-04-28T10:58:44;11.60;99.90
51733;DHT22;39139;53.144;6.244;2023-04-28T11:06:18;11.70;99.90
51733;DHT22;39139;53.144;6.244;2023-04-28T11:08:50;11.70;99.90
51733;DHT22;39139;53.144;6.244;2023-04-28T11:11:17;11.70;99.90
51733;DHT22;39139;53.144;6.244;2023-04-28T11:13:44;11.80;99.90
51733;DHT22;39139;53.144;6.244;2023-04-28T11:16:13;11.90;99.90
51733;DHT22;39139;53.144;6.244;2023-04-28T11:21:20;11.90;99.90
51733;DHT22;39139;53.144;6.244;2023-04-28T11:23:46;11.90;99.90
51733;DHT22;39139;53.144;6.244;2023-04-28T11:26:13;11.90;99.90
51733;DHT22;39139;53.144;6.244;2023-04-28T11:28:47;11.90;99.90
51733;DHT22;39139;53.144;6.244;2023-04-28T11:31:14;12.00;99.90
51733;DHT22;39139;53.144;6.244;2023-04-28T11:33:59;12.00;99.90
51733;DHT22;39139;53.144;6.244;2023-04-28T11:36:29;11.90;99.90
51733;DHT22;39139;53.144;6.244;2023-04-28T11:38:56;12.00;99.90
51733;DHT22;39139;53.144;6.244;2023-04-28T11:41:22;12.00;99.90
51733;DHT22;39139;53.144;6.244;2023-04-28T11:43:48;11.90;99.90
51733;DHT22;39139;53.144;6.244;2023-04-28T11:46:24;12.00;99.90
51733;DHT22;39139;53.144;6.244;2023-04-28T11:49:04;12.00;99.90
51733;DHT22;39139;53.144;6.244;2023-04-28T11:51:34;12.00;99.90
51733;DHT22;39139;53.144;6.244;2023-04-28T11:54:01;12.00;99.90
51733;DHT22;39139;53.144;6.244;2023-04-28T11:56:28;12.00;99.90
51733;DHT22;39139;53.144;6.244;2023-04-28T11:59:08;12.00;99.90
51733;DHT22;39139;53.144;6.244;2023-04-28T12:01:49;12.00;99.90
51733;DHT22;39139;53.144;6.244;2023-04-28T12:06:59;11.90;99.90
51733;DHT22;39139;53.144;6.244;2023-04-28T12:09:25;12.00;99.90
51733;DHT22;39139;53.144;6.244;2023-04-28T12:11:55;12.00;99.90
51733;DHT22;39139;53.144;6.244;2023-04-28T12:14:22;12.00;99.90
51733;DHT22;39139;53.144;6.244;2023-04-28T12:16:48;12.00;99.90
51733;DHT22;39139;53.144;6.244;2023-04-28T12:19:15;12.00;99.90
51733;DHT22;39139;53.144;6.244;2023-04-28T12:21:42;12.00;99.90
51733;DHT22;39139;53.144;6.244;2023-04-28T12:24:14;12.00;99.90
51733;DHT22;39139;53.144;6.244;2023-04-28T12:26:40;12.00;99.90
51733;DHT22;39139;53.144;6.244;2023-04-28T12:29:07;12.00;99.90
51733;DHT22;39139;53.144;6.244;2023-04-28T12:31:49;12.10;99.90
51733;DHT22;39139;53.144;6.244;2023-04-28T12:34:17;12.20;99.90
51733;DHT22;39139;53.144;6.244;2023-04-28T12:36:43;12.30;99.90
51733;DHT22;39139;53.144;6.244;2023-04-28T12:39:14;12.40;99.90
51733;DHT22;39139;53.144;6.244;2023-04-28T12:41:41;12.50;99.90
51733;DHT22;39139;53.144;6.244;2023-04-28T12:44:06;12.60;99.90
51733;DHT22;39139;53.144;6.244;2023-04-28T12:46:32;12.80;99.90
51733;DHT22;39139;53.144;6.244;2023-04-28T12:48:58;12.90;99.90
51733;DHT22;39139;53.144;6.244;2023-04-28T12:51:24;12.90;99.90
51733;DHT22;39139;53.144;6.244;2023-04-28T12:53:49;13.00;99.90
51733;DHT22;39139;53.144;6.244;2023-04-28T12:56:15;13.10;99.90
51733;DHT22;39139;53.144;6.244;2023-04-28T12:58:41;13.10;99.90
51733;DHT22;39139;53.144;6.244;2023-04-28T13:01:06;13.00;99.90
51733;DHT22;39139;53.144;6.244;2023-04-28T13:03:32;13.00;99.90
51733;DHT22;39139;53.144;6.244;2023-04-28T13:05:58;12.90;99.90
51733;DHT22;39139;53.144;6.244;2023-04-28T13:08:23;12.80;99.90
51733;DHT22;39139;53.144;6.244;2023-04-28T13:10:49;12.80;99.90
51733;DHT22;39139;53.144;6.244;2023-04-28T13:13:15;12.70;99.90
51733;DHT22;39139;53.144;6.244;2023-04-28T13:15:41;12.50;99.90
51733;DHT22;39139;53.144;6.244;2023-04-28T13:18:06;12.50;99.90
51733;DHT22;39139;53.144;6.244;2023-04-28T13:20:32;12.40;99.90
51733;DHT22;39139;53.144;6.244;2023-04-28T13:22:58;12.40;99.90
51733;DHT22;39139;53.144;6.244;2023-04-28T13:25:23;12.40;99.90
51733;DHT22;39139;53.144;6.244;2023-04-28T13:27:49;12.40;99.90
51733;DHT22;39139;53.144;6.244;2023-04-28T13:30:14;12.30;99.90
51733;DHT22;39139;53.144;6.244;2023-04-28T13:32:40;12.30;99.90
51733;DHT22;39139;53.144;6.244;2023-04-28T13:35:06;12.30;99.90
51733;DHT22;39139;53.144;6.244;2023-04-28T13:37:33;12.20;99.90
51733;DHT22;39139;53.144;6.244;2023-04-28T13:39:59;12.20;99.90
51733;DHT22;39139;53.144;6.244;2023-04-28T13:42:28;12.10;99.90
51733;DHT22;39139;53.144;6.244;2023-04-28T13:44:53;12.20;99.90
51733;DHT22;39139;53.144;6.244;2023-04-28T13:47:19;12.20;99.90
51733;DHT22;39139;53.144;6.244;2023-04-28T13:49:45;12.20;99.90
51733;DHT22;39139;53.144;6.244;2023-04-28T13:52:10;12.20;99.90
51733;DHT22;39139;53.144;6.244;2023-04-28T13:54:36;12.20;99.90
51733;DHT22;39139;53.144;6.244;2023-04-28T13:57:01;12.10;99.90
51733;DHT22;39139;53.144;6.244;2023-04-28T13:59:27;12.20;99.90
51733;DHT22;39139;53.144;6.244;2023-04-28T14:01:52;12.90;99.90
51733;DHT22;39139;53.144;6.244;2023-04-28T14:04:18;12.20;99.90
51733;DHT22;39139;53.144;6.244;2023-04-28T14:06:44;12.20;99.90
51733;DHT22;39139;53.144;6.244;2023-04-28T14:09:09;12.20;99.90
51733;DHT22;39139;53.144;6.244;2023-04-28T14:11:35;12.10;99.90
51733;DHT22;39139;53.144;6.244;2023-04-28T14:14:01;12.10;99.90
51733;DHT22;39139;53.144;6.244;2023-04-28T14:16:26;12.10;99.90
51733;DHT22;39139;53.144;6.244;2023-04-28T14:18:53;12.10;99.90
51733;DHT22;39139;53.144;6.244;2023-04-28T14:21:19;12.10;99.90
51733;DHT22;39139;53.144;6.244;2023-04-28T14:23:45;12.00;99.90
51733;DHT22;39139;53.144;6.244;2023-04-28T14:26:12;12.10;99.90
51733;DHT22;39139;53.144;6.244;2023-04-28T14:28:38;12.10;99.90
51733;DHT22;39139;53.144;6.244;2023-04-28T14:31:04;12.00;99.90
51733;DHT22;39139;53.144;6.244;2023-04-28T14:33:32;12.00;99.90
51733;DHT22;39139;53.144;6.244;2023-04-28T14:35:59;12.30;99.90
51733;DHT22;39139;53.144;6.244;2023-04-28T14:38:26;12.10;99.90
51733;DHT22;39139;53.144;6.244;2023-04-28T14:40:53;12.00;99.90
51733;DHT22;39139;53.144;6.244;2023-04-28T14:43:18;12.00;99.90
51733;DHT22;39139;53.144;6.244;2023-04-28T14:45:44;11.90;99.90
51733;DHT22;39139;53.144;6.244;2023-04-28T14:48:10;11.90;99.90
51733;DHT22;39139;53.144;6.244;2023-04-28T14:50:37;12.10;99.90
51733;DHT22;39139;53.144;6.244;2023-04-28T14:53:03;11.90;99.90
51733;DHT22;39139;53.144;6.244;2023-04-28T14:55:32;11.90;99.90
51733;DHT22;39139;53.144;6.244;2023-04-28T14:57:58;11.90;99.90
51733;DHT22;39139;53.144;6.244;2023-04-28T15:00:23;11.90;99.90
51733;DHT22;39139;53.144;6.244;2023-04-28T15:02:49;11.80;99.90
51733;DHT22;39139;53.144;6.244;2023-04-28T15:05:15;11.80;99.90
51733;DHT22;39139;53.144;6.244;2023-04-28T15:07:40;11.80;99.90
51733;DHT22;39139;53.144;6.244;2023-04-28T15:10:06;11.80;99.90
51733;DHT22;39139;53.144;6.244;2023-04-28T15:12:32;11.80;99.90
51733;DHT22;39139;53.144;6.244;2023-04-28T15:14:59;11.70;99.90
51733;DHT22;39139;53.144;6.244;2023-04-28T15:17:24;11.70;99.90
51733;DHT22;39139;53.144;6.244;2023-04-28T15:19:50;11.60;99.90
51733;DHT22;39139;53.144;6.244;2023-04-28T15:22:16;11.60;99.90
51733;DHT22;39139;53.144;6.244;2023-04-28T15:24:42;11.60;99.90
51733;DHT22;39139;53.144;6.244;2023-04-28T15:27:07;11.60;99.90
51733;DHT22;39139;53.144;6.244;2023-04-28T15:29:33;11.50;99.90
51733;DHT22;39139;53.144;6.244;2023-04-28T15:31:59;11.60;99.90
51733;DHT22;39139;53.144;6.244;2023-04-28T15:34:25;11.60;99.90
51733;DHT22;39139;53.144;6.244;2023-04-28T15:36:51;11.60;99.90
51733;DHT22;39139;53.144;6.244;2023-04-28T15:39:20;11.70;99.90
51733;DHT22;39139;53.144;6.244;2023-04-28T15:41:45;11.60;99.90
51733;DHT22;39139;53.144;6.244;2023-04-28T15:44:11;11.50;99.90
51733;DHT22;39139;53.144;6.244;2023-04-28T15:46:37;11.60;99.90
51733;DHT22;39139;53.144;6.244;2023-04-28T15:49:03;11.50;99.90
51733;DHT22;39139;53.144;6.244;2023-04-28T15:51:29;11.60;99.90
51733;DHT22;39139;53.144;6.244;2023-04-28T15:53:54;11.60;99.90
51733;DHT22;39139;53.144;6.244;2023-04-28T15:56:21;11.50;99.90
51733;DHT22;39139;53.144;6.244;2023-04-28T15:58:48;11.50;99.90
51733;DHT22;39139;53.144;6.244;2023-04-28T16:01:14;11.50;99.90
51733;DHT22;39139;53.144;6.244;2023-04-28T16:03:40;11.60;99.90
51733;DHT22;39139;53.144;6.244;2023-04-28T16:06:06;11.60;99.90